Logo AVAMET
Benvolgut visitant, si us plau, ingressa Recuperar contrasenya
AVAMET paisatges

Castelló de la Plana Illes Columbretes

Dades diàries. Acumulats / Últims 30 dies disponibles

Data Temperatura (°C) Humitat rel. (%) Pressió rel. (hPa) Vent (km/h) Precipitació
Mínima Mitjana Màxima Amplitud
tèrmica
Mínima Mitjana Màxima Mínima Mitjana Màxima Predom. Mitjana Ràfega
màxima
Total
(mm)
Índex-n
Mínima Mitjana Màxima Mínima Mitjana Màxima n
0 a 1
P0 max
mm 5'
Dades mensuals acumulades fins l'últim dia disponible
04/2020 11,3 12,2 12,9 13,7 12,9 15,7 17,2 5,9 66 83 93 1.008 1.016 1.022   10,5 67,6 11,2
Dades anuals acumulades fins l'últim dia disponible
2020 8,3 12,3 15,1 13,9 12,8 15,9 22,1 13,8 37 80 94 996 1.022 1.035   13,0 103,0 126,3
Últims 30 dies disponibles
05-04-2020 12,9     14,6     16,9 4,0 71 82 89 1.020 1.021 1.022 ESE 4,2 14,5 0,0
04-04-2020 12,6     14,1     15,5 2,9 79 83 88 1.019 1.020 1.021 SE 10,9 29,0 0,0
03-04-2020 11,9     13,5     16,2 4,3 66 75 86 1.014 1.016 1.019 ESE 5,6 24,1 0,2
02-04-2020 11,3     12,2     12,9 1,6 78 85 89 1.010 1.012 1.015 ENE 12,6 45,1 1,8 0,32 0,40
01-04-2020 12,1     13,9     17,2 5,1 82 89 93 1.008 1.010 1.012 E 19,0 67,6 9,2 0,71 4,80
31-03-2020 9,9     13,1     14,5 4,6 80 88 91 1.009 1.010 1.013 ENE 21,6 51,5 3,2 0,34 0,60
30-03-2020 9,7     12,2     14,8 5,1 58 71 79 1.012 1.014 1.014 NE 10,3 49,9 0,2
29-03-2020 13,2     14,4     16,4 3,2 74 77 82 1.013 1.016 1.019 W 20,8 45,1 0,0
28-03-2020 11,6     13,5     16,1 4,5 62 70 78 1.016 1.018 1.019 ENE 6,8 25,7 0,0
27-03-2020 8,9     11,7     14,2 5,3 57 67 84 1.012 1.014 1.017 E 9,8 41,8 0,8
26-03-2020 8,3     10,9     13,9 5,6 60 76 85 1.008 1.010 1.014 ENE 13,2 48,3 4,0
25-03-2020 10,1     11,2     12,8 2,7 55 70 76 1.014 1.017 1.018 ENE 15,0 41,8 0,2
24-03-2020 12,5     13,6     14,7 2,2 71 78 89 1.017 1.018 1.019 ENE 33,0 59,5 0,0
23-03-2020 13,5     14,6     17,0 3,5 84 89 92 1.015 1.017 1.018 E 13,7 38,6 0,0
22-03-2020 11,6     13,1     13,8 2,2 84 87 91 1.011 1.013 1.015 ENE 7,2 33,8 13,2
21-03-2020 13,0     13,9     15,6 2,6 76 83 86 1.012 1.014 1.017 ENE 10,3 27,4 0,0
20-03-2020 13,1     14,0     15,9 2,8 79 83 88 1.017 1.019 1.021 ENE 17,2 37,0 0,0
19-03-2020 13,1     13,9     15,7 2,6 82 86 88 1.021 1.023 1.026 ENE 10,5 25,7 0,0
18-03-2020 13,3     14,0     15,2 1,9 80 85 90 1.025 1.027 1.028 ENE 14,5 35,4 0,0
17-03-2020 13,6     14,4     14,9 1,3 90 92 94 1.019 1.024 1.028 ENE 20,6 51,5 3,4
16-03-2020 13,4     14,3     15,5 2,1 82 89 92 1.011 1.014 1.020 ESE 13,5 37,0 1,2
15-03-2020 13,6     14,6     15,8 2,2 83 87 91 1.015 1.018 1.021 SE 16,3 40,2 0,0
14-03-2020 13,2     14,7     17,8 4,6 77 84 90 1.019 1.020 1.022 ESE 7,1 25,7 0,0
13-03-2020 13,1     14,8     16,7 3,6 78 85 92 1.018 1.019 1.021 ENE 9,3 32,2 0,0
12-03-2020 12,7     14,5     16,2 3,5 88 92 94 1.018 1.020 1.023 E 7,7 30,6 0,6
11-03-2020 13,7     15,4     18,7 5,0 67 86 92 1.022 1.023 1.024 ESE 6,6 20,9 0,0
10-03-2020 12,9     14,2     14,9 2,0 59 74 88 1.023 1.024 1.026 S 16,3 46,7 0,0
09-03-2020 13,0     15,8     19,4 6,4 37 62 88 1.018 1.021 1.023 NE 11,6 62,8 0,0
08-03-2020 13,0     14,3     15,8 2,8 70 78 86 1.021 1.023 1.025 SSE 11,7 33,8 0,0
07-03-2020 11,6     13,8     17,3 5,7 53 63 78 1.017 1.021 1.025 NE 13,7 49,9 0,0
Últims 13 mesos disponibles
03/2020 8,3 12,5 15,1 14,1 12,8 16,2 19,6 11,3 62 78 92 1.005 1.017 1.027 ENE 16,4 103,0 27,2
02/2020 11,6 13,0 14,3 14,5 14,4 16,8 22,1 10,5 64 80 90 1.012 1.025 1.033 S 10,8 88,5 1,2
01/2020 8,4 11,6 14,3 13,0 13,1 14,8 18,1 9,7 71 81 89 1.017 1.025 1.032 ENE 12,3 101,4 86,7
12/2019 10,1 13,4 16,8 14,7 13,1 16,3 21,8 11,7 65 80 91 1.001 1.018 1.033 ENE 17,4 98,2 100,7
11/2019 11,3 14,7 20,7 16,4 14,4 18,2 23,4 12,1 51 67 88 996 1.009 1.017 NE 21,0 96,6 7,2
10/2019 15,4 20,0 22,8 21,4 19,0 23,4 27,7 12,3 53 75 86 1.007 1.016 1.021 S 12,8 90,1 105,4
09/2019 16,4 22,4 25,8 23,9 23,4 25,8 28,4 12,0 60 79 89 1.009 1.018 1.025 ENE 11,6 77,2 45,2
08/2019 20,8 24,6 26,4 26,3 26,8 28,5 31,0 10,2 64 77 85 1.011 1.016 1.020 ESE 9,6 59,5 44,2
07/2019 23,1 24,6 25,8 26,3 26,6 28,7 31,5 8,4 58 78 88 1.006 1.014 1.021 E 9,6 64,4 0,4
06/2019 14,7 19,5 23,7 21,3 19,7 23,8 29,6 14,9 69 80 87 1.008 1.016 1.022 ENE 10,9 62,8 1,4
05/2019 12,4 15,7 17,8 17,4 16,9 20,0 23,6 11,2 61 77 88 1.004 1.016 1.025 ESE 12,8 74,0 15,2
04/2019 10,4 13,4 14,8 15,0 14,9 17,2 20,4 10,0 55 77 88 999 1.013 1.026 ENE 17,4 74,0 19,4
03/2019 10,2 12,8 14,7 14,5 14,2 17,0 20,1 9,9 57 74 87 1.010 1.023 1.030 NE 11,9 80,5 4,8
Tots els anys disponibles
2019 8,0 17,1 26,4 18,6 11,9 20,8 31,5 23,5 49 76 91 993 1.017 1.035 ENE 13,1 98,2 349,1
2018 5,9 17,2 28,1 18,8 10,1 20,9 32,8 26,9 50 76 92 998 1.018 1.030 ENE 13,1 98,2 609,2
Temperatura (°C)
Humitat relativa (%)
Velocitat del vent i ràfega màxima (km/h)
Direcció del vent (°)
Pressió (hPa)
Precipitació (mm)
Nota sobre les dades: s'avisa a l'usuari de la provisionalitat i no oficialitat d'aquestes dades
Logo AVAMET blanc
Web allotjada a Sollutia
Llicència de Creative CommonsLa web d'AVAMET i els seus continguts estan subjectes a una llicència de
Reconeixement - No Comercial - Compartir igual
Últimes estacions:  Altea - Com. Regants (Soci), Almoines (Inforatge), Beniparrell (Inforatge), Albal (Inforatge), Almussafes - Parc Industrial (Inforatge), La Vilavella (Soci), la Serratella (soci) - - -